Time;durP1;ratioP1;P1;durP2;ratioP2;P2;SDS_P1;SDS_P2;PMS_P1;PMS_P2;Temp;Humidity;BMP_temperature;BMP_pressure;BME280_temperature;BME280_humidity;BME280_pressure;Samples;Min_cycle;Max_cycle;Signal;HPM_P1;HPM_P2
2022/10/17 00:00:06;;;;;;;5.13;4.60;;;;;;;;;;5076040;28;20954;-62
2022/10/17 00:02:33;;;;;;;4.63;4.23;;;;;;;;;;5076149;28;20473;-62
2022/10/17 00:05:00;;;;;;;5.00;4.60;;;;;;;;;;5075998;28;20787;-62
2022/10/17 00:07:27;;;;;;;4.57;4.28;;;;;;;;;;5075849;28;20483;-62
2022/10/17 00:09:55;;;;;;;5.00;4.70;;;;;;;;;;5076079;28;20193;-61
2022/10/17 00:12:22;;;;;;;5.10;4.50;;;;;;;;;;5076019;28;20810;-62
2022/10/17 00:14:49;;;;;;;5.50;5.10;;;;;;;;;;5075961;28;20443;-62
2022/10/17 00:17:16;;;;;;;4.50;4.20;;;;;;;;;;5075795;28;20545;-62
2022/10/17 00:19:43;;;;;;;7.70;5.00;;;;;;;;;;5075681;28;20224;-62
2022/10/17 00:22:10;;;;;;;5.60;5.00;;;;;;;;;;5075888;28;20454;-62
2022/10/17 00:24:37;;;;;;;6.33;5.20;;;;;;;;;;5075857;28;21037;-62
2022/10/17 00:27:05;;;;;;;4.53;4.13;;;;;;;;;;5075652;28;20454;-62
2022/10/17 00:29:32;;;;;;;4.73;3.77;;;;;;;;;;5075671;28;20199;-62
2022/10/17 00:31:59;;;;;;;4.27;3.97;;;;;;;;;;5075551;28;20534;-62
2022/10/17 00:34:26;;;;;;;5.83;5.07;;;;;;;;;;5075419;28;20453;-62
2022/10/17 00:36:53;;;;;;;5.07;4.67;;;;;;;;;;5075620;28;20451;-62
2022/10/17 00:39:20;;;;;;;4.20;3.90;;;;;;;;;;5075114;28;20546;-62
2022/10/17 00:41:47;;;;;;;5.53;4.10;;;;;;;;;;5075003;28;20451;-62
2022/10/17 00:44:32;;;;;;;4.37;4.07;;;;;;;;;;5075415;28;20191;-62
2022/10/17 00:47:02;;;;;;;4.03;3.73;;;;;;;;;;5075182;28;20443;-62
2022/10/17 00:49:31;;;;;;;4.40;4.00;;;;;;;;;;5075449;28;20543;-62
2022/10/17 00:52:00;;;;;;;4.80;4.50;;;;;;;;;;5075316;28;20443;-62
2022/10/17 00:54:29;;;;;;;4.70;4.40;;;;;;;;;;5075260;28;21000;-62
2022/10/17 00:56:56;;;;;;;5.27;4.87;;;;;;;;;;5075090;28;20443;-61
2022/10/17 00:59:23;;;;;;;4.57;4.20;;;;;;;;;;5074997;28;20487;-62
2022/10/17 01:01:54;;;;;;;4.40;4.00;;;;;;;;;;5074964;28;20995;-63
2022/10/17 01:04:22;;;;;;;4.72;4.43;;;;;;;;;;5075170;28;20530;-62
2022/10/17 01:06:49;;;;;;;6.20;5.60;;;;;;;;;;5075036;28;20221;-62
2022/10/17 01:09:16;;;;;;;4.40;4.10;;;;;;;;;;5074792;28;20518;-62
2022/10/17 01:11:48;;;;;;;4.30;4.03;;;;;;;;;;5074818;28;20806;-62
2022/10/17 01:14:20;;;;;;;6.40;4.30;;;;;;;;;;5074926;28;20452;-62
2022/10/17 01:16:52;;;;;;;4.80;4.50;;;;;;;;;;5074914;28;20458;-62
2022/10/17 01:19:34;;;;;;;4.78;4.38;;;;;;;;;;5074753;28;20443;-62
2022/10/17 01:22:06;;;;;;;5.10;4.70;;;;;;;;;;5074712;28;20189;-62
2022/10/17 01:24:40;;;;;;;5.10;4.70;;;;;;;;;;5074569;28;20513;-62
2022/10/17 01:27:16;;;;;;;4.30;3.53;;;;;;;;;;5074620;28;20548;-62
2022/10/17 01:30:04;;;;;;;4.97;4.67;;;;;;;;;;5074624;28;20545;-62
2022/10/17 01:32:35;;;;;;;5.00;4.50;;;;;;;;;;5074428;28;20815;-62
2022/10/17 01:35:04;;;;;;;4.20;3.90;;;;;;;;;;5074590;28;20501;-62
2022/10/17 01:37:33;;;;;;;4.63;4.23;;;;;;;;;;5074452;28;20447;-62
2022/10/17 01:40:04;;;;;;;4.83;4.43;;;;;;;;;;5074378;28;20447;-62
2022/10/17 01:42:34;;;;;;;6.80;4.20;;;;;;;;;;5074345;28;20453;-62
2022/10/17 01:45:04;;;;;;;5.30;5.00;;;;;;;;;;5074164;28;20538;-62
2022/10/17 01:47:32;;;;;;;4.83;4.40;;;;;;;;;;5074018;28;20479;-62
2022/10/17 01:50:02;;;;;;;6.17;3.83;;;;;;;;;;5074227;28;20451;-62
2022/10/17 01:52:32;;;;;;;6.50;4.30;;;;;;;;;;5073958;28;20448;-62
2022/10/17 01:55:04;;;;;;;4.77;4.30;;;;;;;;;;5074025;28;20479;-62
2022/10/17 01:57:32;;;;;;;4.47;4.20;;;;;;;;;;5073879;28;20469;-63
2022/10/17 02:00:00;;;;;;;4.30;4.00;;;;;;;;;;5056166;28;20436;-62
2022/10/17 02:02:28;;;;;;;3.43;3.23;;;;;;;;;;5073982;28;20887;-62
2022/10/17 02:04:56;;;;;;;3.70;3.50;;;;;;;;;;5073794;28;20444;-62
2022/10/17 02:07:24;;;;;;;4.47;4.07;;;;;;;;;;5073551;28;20519;-62
2022/10/17 02:09:51;;;;;;;4.07;3.63;;;;;;;;;;5073686;28;20479;-62
2022/10/17 02:12:26;;;;;;;4.50;4.20;;;;;;;;;;5073504;28;20739;-62
2022/10/17 02:15:00;;;;;;;4.10;3.80;;;;;;;;;;5073798;28;20455;-62
2022/10/17 02:17:31;;;;;;;4.73;4.33;;;;;;;;;;5073688;28;20447;-62
2022/10/17 02:20:02;;;;;;;3.87;3.60;;;;;;;;;;5073558;28;20447;-62
2022/10/17 02:22:36;;;;;;;4.17;3.77;;;;;;;;;;5073382;28;20443;-62
2022/10/17 02:25:05;;;;;;;3.87;3.67;;;;;;;;;;5073644;28;20451;-62
2022/10/17 02:27:39;;;;;;;3.77;3.57;;;;;;;;;;5073434;28;20451;-62
2022/10/17 02:30:09;;;;;;;3.70;3.50;;;;;;;;;;5073511;28;20672;-62
2022/10/17 02:32:40;;;;;;;3.20;3.00;;;;;;;;;;5073385;28;20193;-62
2022/10/17 02:35:09;;;;;;;3.73;3.43;;;;;;;;;;5073248;28;20550;-62
2022/10/17 02:37:37;;;;;;;3.90;3.60;;;;;;;;;;5073422;28;20458;-61
2022/10/17 02:40:05;;;;;;;5.03;4.63;;;;;;;;;;5073327;28;20538;-62
2022/10/17 02:42:32;;;;;;;4.97;4.17;;;;;;;;;;5073296;28;20451;-62
2022/10/17 02:45:00;;;;;;;3.60;3.40;;;;;;;;;;5073191;28;20830;-62
2022/10/17 02:47:29;;;;;;;4.00;3.70;;;;;;;;;;5072914;28;20479;-62
2022/10/17 02:49:57;;;;;;;4.30;3.90;;;;;;;;;;5073010;28;20810;-62
2022/10/17 02:52:27;;;;;;;7.50;4.17;;;;;;;;;;5073199;28;20967;-62
2022/10/17 02:54:58;;;;;;;3.40;3.10;;;;;;;;;;5073134;28;20458;-62
2022/10/17 02:57:28;;;;;;;6.20;4.03;;;;;;;;;;5073087;28;20439;-62
2022/10/17 02:59:55;;;;;;;3.97;3.73;;;;;;;;;;5072986;28;20454;-62
2022/10/17 03:02:22;;;;;;;3.70;3.37;;;;;;;;;;5072728;28;20451;-62
2022/10/17 03:04:49;;;;;;;3.60;3.37;;;;;;;;;;5072699;28;20451;-62
2022/10/17 03:07:16;;;;;;;4.33;4.03;;;;;;;;;;5072991;28;20897;-61
2022/10/17 03:09:43;;;;;;;4.37;4.07;;;;;;;;;;5072818;28;20490;-62
2022/10/17 03:12:11;;;;;;;3.90;3.60;;;;;;;;;;5072763;28;20957;-62
2022/10/17 03:14:38;;;;;;;6.60;4.10;;;;;;;;;;5072695;28;20447;-62
2022/10/17 03:17:05;;;;;;;6.90;4.90;;;;;;;;;;5072705;28;20466;-62
2022/10/17 03:19:32;;;;;;;4.43;3.63;;;;;;;;;;5072899;28;20455;-62
2022/10/17 03:21:59;;;;;;;6.13;3.87;;;;;;;;;;5072845;28;20447;-62
2022/10/17 03:24:26;;;;;;;4.60;4.20;;;;;;;;;;5072765;28;20452;-62
2022/10/17 03:26:52;;;;;;;5.30;3.87;;;;;;;;;;5072739;28;20447;-61
2022/10/17 03:29:21;;;;;;;6.68;3.75;;;;;;;;;;5072422;28;20479;-62
2022/10/17 03:31:48;;;;;;;4.13;3.50;;;;;;;;;;5072861;28;20590;-62
2022/10/17 03:34:15;;;;;;;4.07;3.77;;;;;;;;;;5072713;28;20447;-62
2022/10/17 03:36:42;;;;;;;5.77;3.90;;;;;;;;;;5072445;28;20439;-62
2022/10/17 03:39:09;;;;;;;4.00;3.60;;;;;;;;;;5072508;28;20968;-62
2022/10/17 03:41:36;;;;;;;4.33;3.47;;;;;;;;;;5072475;28;20450;-62
2022/10/17 03:44:03;;;;;;;4.00;3.77;;;;;;;;;;5072418;28;20454;-61
2022/10/17 03:46:31;;;;;;;4.13;3.73;;;;;;;;;;5072576;28;20449;-62
2022/10/17 03:48:58;;;;;;;4.40;4.00;;;;;;;;;;5072310;28;20877;-62
2022/10/17 03:51:25;;;;;;;5.63;3.97;;;;;;;;;;5072512;28;20538;-62
2022/10/17 03:53:52;;;;;;;4.80;4.33;;;;;;;;;;5072404;28;20447;-61
2022/10/17 03:56:20;;;;;;;6.80;3.83;;;;;;;;;;5072426;28;20443;-62
2022/10/17 03:58:47;;;;;;;4.93;3.80;;;;;;;;;;5072277;28;20475;-62
2022/10/17 04:01:15;;;;;;;4.73;4.40;;;;;;;;;;5072510;28;20493;-62
2022/10/17 04:03:43;;;;;;;4.80;4.40;;;;;;;;;;5072438;28;20450;-62
2022/10/17 04:06:11;;;;;;;6.87;4.93;;;;;;;;;;5072483;28;20962;-62
2022/10/17 04:08:38;;;;;;;4.83;4.33;;;;;;;;;;5072203;28;20467;-62
2022/10/17 04:11:06;;;;;;;5.73;4.93;;;;;;;;;;5072182;28;20530;-62
2022/10/17 04:13:33;;;;;;;4.70;4.30;;;;;;;;;;5072496;28;20462;-62
2022/10/17 04:16:01;;;;;;;7.73;4.30;;;;;;;;;;5075545;28;20443;-62
2022/10/17 04:18:28;;;;;;;4.07;3.67;;;;;;;;;;5075837;28;20451;-62
2022/10/17 04:20:56;;;;;;;4.93;4.30;;;;;;;;;;5075853;28;20486;-62
2022/10/17 04:23:25;;;;;;;5.53;4.47;;;;;;;;;;5075768;28;20443;-62
2022/10/17 04:25:55;;;;;;;11.10;4.43;;;;;;;;;;5076063;28;20605;-62
2022/10/17 04:28:22;;;;;;;4.73;4.33;;;;;;;;;;5075657;28;20562;-62
2022/10/17 04:30:56;;;;;;;10.80;4.70;;;;;;;;;;5075749;28;20458;-62
2022/10/17 04:33:22;;;;;;;4.73;4.40;;;;;;;;;;5075673;28;20458;-62
2022/10/17 04:35:56;;;;;;;5.30;4.90;;;;;;;;;;5075394;28;20934;-62
2022/10/17 04:38:23;;;;;;;4.77;4.07;;;;;;;;;;5075688;28;20544;-62
2022/10/17 04:40:50;;;;;;;6.07;3.90;;;;;;;;;;5075574;28;20444;-62
2022/10/17 04:43:17;;;;;;;6.37;4.47;;;;;;;;;;5075443;28;20523;-62
2022/10/17 04:45:44;;;;;;;6.30;4.90;;;;;;;;;;5075405;28;20479;-62
2022/10/17 04:48:11;;;;;;;6.40;4.57;;;;;;;;;;5074970;28;20471;-62
2022/10/17 04:50:38;;;;;;;6.80;5.20;;;;;;;;;;5075102;28;20454;-62
2022/10/17 04:53:06;;;;;;;4.97;3.83;;;;;;;;;;5075302;28;20447;-62
2022/10/17 04:55:37;;;;;;;8.67;5.03;;;;;;;;;;5075622;28;20538;-61
2022/10/17 04:58:04;;;;;;;5.63;5.03;;;;;;;;;;5075189;28;20479;-62
2022/10/17 05:00:30;;;;;;;6.53;4.53;;;;;;;;;;5075066;28;20581;-62
2022/10/17 05:02:57;;;;;;;7.30;4.90;;;;;;;;;;5074861;28;20447;-62
2022/10/17 05:05:24;;;;;;;8.80;5.70;;;;;;;;;;5074891;28;20541;-62
2022/10/17 05:07:51;;;;;;;6.80;5.73;;;;;;;;;;5074972;28;20799;-62
2022/10/17 05:10:19;;;;;;;5.20;4.60;;;;;;;;;;5074835;28;20996;-62
2022/10/17 05:12:47;;;;;;;4.83;4.07;;;;;;;;;;5074854;28;20447;-62
2022/10/17 05:15:14;;;;;;;4.83;4.40;;;;;;;;;;5074703;28;20505;-62
2022/10/17 05:17:41;;;;;;;5.03;4.60;;;;;;;;;;5074524;28;20529;-62
2022/10/17 05:20:08;;;;;;;4.78;4.35;;;;;;;;;;5074730;28;20447;-61
2022/10/17 05:22:35;;;;;;;7.73;4.67;;;;;;;;;;5074570;28;20185;-62
2022/10/17 05:25:02;;;;;;;5.43;5.03;;;;;;;;;;5074600;28;20451;-62
2022/10/17 05:27:31;;;;;;;5.45;4.95;;;;;;;;;;5073731;28;20546;-62
2022/10/17 05:29:57;;;;;;;6.80;5.20;;;;;;;;;;5074333;28;20252;-63
2022/10/17 05:32:24;;;;;;;7.67;5.67;;;;;;;;;;5074296;28;20535;-62
2022/10/17 05:34:51;;;;;;;5.03;4.53;;;;;;;;;;5074455;28;20513;-63
2022/10/17 05:37:18;;;;;;;7.17;4.53;;;;;;;;;;5074480;28;20818;-62
2022/10/17 05:39:45;;;;;;;13.33;5.40;;;;;;;;;;5074267;28;20546;-62
2022/10/17 05:42:12;;;;;;;10.20;5.80;;;;;;;;;;5074073;28;20444;-62
2022/10/17 05:44:41;;;;;;;6.93;5.40;;;;;;;;;;5073912;28;20189;-62
2022/10/17 05:47:07;;;;;;;7.20;6.30;;;;;;;;;;5073926;28;20489;-63
2022/10/17 05:49:34;;;;;;;8.10;6.90;;;;;;;;;;5074345;28;20483;-62
2022/10/17 05:52:01;;;;;;;10.37;5.63;;;;;;;;;;5073904;28;20448;-62
2022/10/17 05:54:28;;;;;;;6.20;5.70;;;;;;;;;;5073841;28;20534;-62
2022/10/17 05:56:56;;;;;;;8.20;6.07;;;;;;;;;;5073771;28;20501;-62
2022/10/17 05:59:25;;;;;;;7.50;6.13;;;;;;;;;;5073750;28;20447;-62
2022/10/17 06:01:53;;;;;;;6.10;5.50;;;;;;;;;;5073656;28;20974;-62
2022/10/17 06:04:20;;;;;;;11.13;5.77;;;;;;;;;;5073909;28;20641;-62
2022/10/17 06:06:47;;;;;;;5.80;5.30;;;;;;;;;;5073573;28;20947;-62
2022/10/17 06:09:14;;;;;;;6.27;5.77;;;;;;;;;;5073573;28;20494;-62
2022/10/17 06:11:41;;;;;;;6.90;5.83;;;;;;;;;;5073608;28;20451;-62
2022/10/17 06:14:08;;;;;;;5.83;5.10;;;;;;;;;;5073420;28;20447;-62
2022/10/17 06:16:34;;;;;;;6.18;5.68;;;;;;;;;;5073714;28;20447;-62
2022/10/17 06:19:03;;;;;;;6.60;6.00;;;;;;;;;;5073610;28;20196;-62
2022/10/17 06:21:33;;;;;;;6.03;5.63;;;;;;;;;;5073427;28;20633;-62
2022/10/17 06:24:00;;;;;;;6.50;5.90;;;;;;;;;;5073462;28;20451;-62
2022/10/17 06:26:27;;;;;;;5.70;5.30;;;;;;;;;;5073273;28;20447;-62
2022/10/17 06:28:54;;;;;;;8.20;6.10;;;;;;;;;;5073492;28;20193;-62
2022/10/17 06:31:21;;;;;;;6.33;5.70;;;;;;;;;;5073341;28;20454;-62
2022/10/17 06:33:48;;;;;;;8.70;6.20;;;;;;;;;;5073184;28;20961;-62
2022/10/17 06:36:16;;;;;;;7.13;6.63;;;;;;;;;;5073257;28;20538;-62
2022/10/17 06:38:43;;;;;;;6.73;6.13;;;;;;;;;;5072326;28;20482;-62
2022/10/17 06:41:12;;;;;;;7.50;6.13;;;;;;;;;;5073077;28;20444;-62
2022/10/17 06:43:40;;;;;;;6.65;6.05;;;;;;;;;;5073248;28;20525;-62
2022/10/17 06:46:07;;;;;;;5.83;5.43;;;;;;;;;;5073163;28;20403;-62
2022/10/17 06:48:34;;;;;;;6.03;5.43;;;;;;;;;;5072901;28;20911;-62
2022/10/17 06:51:01;;;;;;;6.57;5.80;;;;;;;;;;5072842;28;20566;-62
2022/10/17 06:53:30;;;;;;;7.53;6.00;;;;;;;;;;5072691;28;20477;-62
2022/10/17 06:56:01;;;;;;;6.90;5.50;;;;;;;;;;5072811;28;20993;-61
2022/10/17 06:58:28;;;;;;;6.10;5.60;;;;;;;;;;5073219;28;20455;-62
2022/10/17 07:00:58;;;;;;;8.00;5.70;;;;;;;;;;5072847;28;20490;-62
2022/10/17 07:03:25;;;;;;;6.43;5.88;;;;;;;;;;5072666;28;20493;-62
2022/10/17 07:05:52;;;;;;;5.83;5.43;;;;;;;;;;5072709;28;20217;-62
2022/10/17 07:08:19;;;;;;;5.83;5.30;;;;;;;;;;5072709;28;20538;-62
2022/10/17 07:10:48;;;;;;;6.80;6.20;;;;;;;;;;5072808;28;20482;-62
2022/10/17 07:13:15;;;;;;;5.90;5.40;;;;;;;;;;5072930;28;20445;-62
2022/10/17 07:15:42;;;;;;;6.30;5.80;;;;;;;;;;5072807;28;20486;-62
2022/10/17 07:18:09;;;;;;;5.83;5.30;;;;;;;;;;5072666;28;20443;-62
2022/10/17 07:20:36;;;;;;;6.30;5.80;;;;;;;;;;5072259;28;20562;-58
2022/10/17 07:23:03;;;;;;;6.07;5.67;;;;;;;;;;5080460;28;20449;-59
2022/10/17 07:25:30;;;;;;;6.20;5.80;;;;;;;;;;5092755;28;20805;-60
2022/10/17 07:27:58;;;;;;;6.10;5.60;;;;;;;;;;5092855;28;20447;-51
2022/10/17 07:30:25;;;;;;;7.03;5.60;;;;;;;;;;5092483;28;20590;-58
2022/10/17 07:32:53;;;;;;;5.90;5.33;;;;;;;;;;5092463;28;20450;-55
2022/10/17 07:35:20;;;;;;;5.40;4.93;;;;;;;;;;5092533;28;20481;-55
2022/10/17 07:37:47;;;;;;;5.60;5.10;;;;;;;;;;5092778;28;20189;-57
2022/10/17 07:40:14;;;;;;;6.40;5.23;;;;;;;;;;5092574;28;20950;-59
2022/10/17 07:42:41;;;;;;;5.00;4.70;;;;;;;;;;5092608;28;20533;-59
2022/10/17 07:45:10;;;;;;;6.13;5.63;;;;;;;;;;5092385;28;20937;-56
2022/10/17 07:47:37;;;;;;;6.65;5.50;;;;;;;;;;5092181;28;20471;-58
2022/10/17 07:50:04;;;;;;;5.73;5.27;;;;;;;;;;5094509;28;20741;-57
2022/10/17 07:52:31;;;;;;;5.68;5.18;;;;;;;;;;5096404;28;20805;-58
2022/10/17 07:54:58;;;;;;;5.90;5.50;;;;;;;;;;5096337;28;20198;-59
2022/10/17 07:57:25;;;;;;;7.83;5.37;;;;;;;;;;5096296;28;20541;-58
2022/10/17 07:59:53;;;;;;;5.67;5.17;;;;;;;;;;5095894;28;20454;-58
2022/10/17 08:02:23;;;;;;;5.22;4.63;;;;;;;;;;5095912;28;20446;-61
2022/10/17 08:04:50;;;;;;;5.23;4.73;;;;;;;;;;5096588;28;20188;-60
2022/10/17 08:07:18;;;;;;;6.90;5.17;;;;;;;;;;5096381;28;20452;-61
2022/10/17 08:09:45;;;;;;;6.70;5.20;;;;;;;;;;5095657;28;20502;-59
2022/10/17 08:12:13;;;;;;;5.63;5.17;;;;;;;;;;5096152;28;20446;-62
2022/10/17 08:14:40;;;;;;;9.47;5.90;;;;;;;;;;5095867;28;20446;-61
2022/10/17 08:17:07;;;;;;;5.23;4.83;;;;;;;;;;5098092;28;20536;-60
2022/10/17 08:19:38;;;;;;;7.20;5.00;;;;;;;;;;5101150;28;20930;-60
2022/10/17 08:22:05;;;;;;;7.17;5.17;;;;;;;;;;5104674;28;20452;-59
2022/10/17 08:24:32;;;;;;;5.47;5.07;;;;;;;;;;5104832;28;20472;-60
2022/10/17 08:26:59;;;;;;;5.90;5.30;;;;;;;;;;5105120;28;20441;-60
2022/10/17 08:29:26;;;;;;;5.18;4.78;;;;;;;;;;5106486;28;20941;-60
2022/10/17 08:31:53;;;;;;;14.83;4.70;;;;;;;;;;5114131;28;20270;-63
2022/10/17 08:34:20;;;;;;;6.33;4.77;;;;;;;;;;5086235;28;20986;-61
2022/10/17 08:36:48;;;;;;;5.30;4.80;;;;;;;;;;5074956;28;20871;-61
2022/10/17 08:39:15;;;;;;;5.60;5.10;;;;;;;;;;5075234;28;20513;-59
2022/10/17 08:41:51;;;;;;;4.63;4.33;;;;;;;;;;5075186;28;20542;-58
2022/10/17 08:44:22;;;;;;;4.37;4.07;;;;;;;;;;5075295;28;20869;-59
2022/10/17 08:46:52;;;;;;;4.70;4.30;;;;;;;;;;5075286;28;20562;-60
2022/10/17 08:49:22;;;;;;;4.68;4.32;;;;;;;;;;5074761;28;20478;-61
2022/10/17 08:51:53;;;;;;;5.50;4.93;;;;;;;;;;5075075;28;20229;-61
2022/10/17 08:54:21;;;;;;;5.23;4.40;;;;;;;;;;5074971;28;20883;-61
2022/10/17 08:56:50;;;;;;;6.00;4.47;;;;;;;;;;5087892;28;20822;-61
2022/10/17 08:59:18;;;;;;;7.27;5.23;;;;;;;;;;5094604;28;20561;-65
2022/10/17 09:01:48;;;;;;;5.10;4.70;;;;;;;;;;5088369;28;20887;-61
2022/10/17 09:04:34;;;;;;;4.40;4.07;;;;;;;;;;5095307;28;20465;-60
2022/10/17 09:07:06;;;;;;;5.80;4.40;;;;;;;;;;5094768;28;20943;-61
2022/10/17 09:09:37;;;;;;;8.70;4.03;;;;;;;;;;5094775;28;20541;-60
2022/10/17 09:12:09;;;;;;;4.23;3.83;;;;;;;;;;5094602;28;20478;-58
2022/10/17 09:14:54;;;;;;;4.73;4.43;;;;;;;;;;5083250;28;20440;-63
2022/10/17 09:17:27;;;;;;;3.93;3.50;;;;;;;;;;5081671;28;20442;-57
2022/10/17 09:19:58;;;;;;;5.13;4.63;;;;;;;;;;5095024;28;20446;-60
2022/10/17 09:22:29;;;;;;;6.03;4.17;;;;;;;;;;5094994;28;20809;-59
2022/10/17 09:24:57;;;;;;;4.40;4.10;;;;;;;;;;5088293;28;20442;-58
2022/10/17 09:27:26;;;;;;;4.30;4.00;;;;;;;;;;5094618;28;20447;-57
2022/10/17 09:29:55;;;;;;;4.50;4.10;;;;;;;;;;5093931;28;20888;-57
2022/10/17 09:32:24;;;;;;;4.67;4.20;;;;;;;;;;5106400;28;20215;-58
2022/10/17 09:34:52;;;;;;;3.83;3.53;;;;;;;;;;5105560;28;20471;-56
2022/10/17 09:37:19;;;;;;;3.97;3.40;;;;;;;;;;5103927;28;20877;-56
2022/10/17 09:39:47;;;;;;;5.63;4.40;;;;;;;;;;5105331;28;20448;-51
2022/10/17 09:42:17;;;;;;;4.73;4.23;;;;;;;;;;5095171;28;20276;-54
2022/10/17 09:44:48;;;;;;;4.23;3.93;;;;;;;;;;5085016;28;20484;-56
2022/10/17 09:47:20;;;;;;;5.17;4.30;;;;;;;;;;5083712;28;20445;-58
2022/10/17 09:49:48;;;;;;;5.23;4.30;;;;;;;;;;5088337;28;20434;-61
2022/10/17 09:52:16;;;;;;;4.57;3.73;;;;;;;;;;5093341;28;20452;-60
2022/10/17 09:54:45;;;;;;;4.30;4.00;;;;;;;;;;5092046;28;20542;-60
2022/10/17 09:57:14;;;;;;;7.20;4.27;;;;;;;;;;5080770;28;20459;-60
2022/10/17 09:59:42;;;;;;;4.90;4.35;;;;;;;;;;5105530;28;20438;-61
2022/10/17 10:02:09;;;;;;;5.10;4.00;;;;;;;;;;5104051;28;20800;-58
2022/10/17 10:04:36;;;;;;;4.03;3.73;;;;;;;;;;5100761;28;21030;-59
2022/10/17 10:07:04;;;;;;;4.40;4.07;;;;;;;;;;5073557;28;20457;-62
2022/10/17 10:09:32;;;;;;;4.97;3.70;;;;;;;;;;5073095;28;21009;-59
2022/10/17 10:12:00;;;;;;;4.10;3.60;;;;;;;;;;5073568;28;20522;-58
2022/10/17 10:14:32;;;;;;;4.20;3.90;;;;;;;;;;5109321;28;20447;-59
2022/10/17 10:16:59;;;;;;;4.50;3.63;;;;;;;;;;5097010;28;20186;-59
2022/10/17 10:19:29;;;;;;;3.73;3.50;;;;;;;;;;5102798;28;20446;-60
2022/10/17 10:21:56;;;;;;;4.20;3.80;;;;;;;;;;5102087;28;20451;-59
2022/10/17 10:24:25;;;;;;;4.53;4.07;;;;;;;;;;5099776;28;20512;-60
2022/10/17 10:26:53;;;;;;;4.37;3.97;;;;;;;;;;5110937;28;20473;-60
2022/10/17 10:29:22;;;;;;;3.60;3.30;;;;;;;;;;5104117;28;20449;-60
2022/10/17 10:31:51;;;;;;;4.07;3.77;;;;;;;;;;5101828;28;20592;-61
2022/10/17 10:34:20;;;;;;;3.97;3.60;;;;;;;;;;5098724;28;20536;-61
2022/10/17 10:36:49;;;;;;;3.63;3.33;;;;;;;;;;5103659;28;20442;-60
2022/10/17 10:39:25;;;;;;;3.83;3.53;;;;;;;;;;5099467;28;20454;-61
2022/10/17 10:41:52;;;;;;;13.40;4.43;;;;;;;;;;5101980;28;20823;-61
2022/10/17 10:44:22;;;;;;;4.35;3.75;;;;;;;;;;5103572;28;20529;-63
2022/10/17 10:47:06;;;;;;;3.57;3.30;;;;;;;;;;5109448;28;20179;-63
2022/10/17 10:49:33;;;;;;;4.10;3.70;;;;;;;;;;5113611;28;20473;-62
2022/10/17 10:52:02;;;;;;;8.57;4.13;;;;;;;;;;5110270;28;20565;-62
2022/10/17 10:54:31;;;;;;;3.70;3.40;;;;;;;;;;5099445;28;20537;-62
2022/10/17 10:57:00;;;;;;;4.13;3.80;;;;;;;;;;5101301;28;20449;-62
2022/10/17 10:59:30;;;;;;;6.43;3.95;;;;;;;;;;5101360;28;20439;-58
2022/10/17 11:02:03;;;;;;;3.90;3.60;;;;;;;;;;5102619;28;20607;-58
2022/10/17 11:04:33;;;;;;;3.87;3.57;;;;;;;;;;5099237;28;20443;-59
2022/10/17 11:07:02;;;;;;;4.33;4.00;;;;;;;;;;5102022;28;20441;-60
2022/10/17 11:09:34;;;;;;;4.47;3.90;;;;;;;;;;5100398;28;20449;-59
2022/10/17 11:12:04;;;;;;;4.10;3.70;;;;;;;;;;5095293;28;20856;-59
2022/10/17 11:14:35;;;;;;;3.97;3.77;;;;;;;;;;5093010;28;20452;-59
2022/10/17 11:17:06;;;;;;;4.60;4.20;;;;;;;;;;5092856;28;20533;-62
2022/10/17 11:19:36;;;;;;;4.40;4.00;;;;;;;;;;5087591;28;20450;-62
2022/10/17 11:22:07;;;;;;;4.03;3.73;;;;;;;;;;5094887;28;20446;-62
2022/10/17 11:24:38;;;;;;;5.10;4.60;;;;;;;;;;5105219;28;20455;-59
2022/10/17 11:27:06;;;;;;;5.10;4.60;;;;;;;;;;5098240;28;20449;-59
2022/10/17 11:29:35;;;;;;;4.20;4.00;;;;;;;;;;5093420;28;20439;-61
2022/10/17 11:32:06;;;;;;;5.27;4.47;;;;;;;;;;5095486;28;20473;-60
2022/10/17 11:34:35;;;;;;;5.40;4.22;;;;;;;;;;5097878;28;20445;-62
2022/10/17 11:37:05;;;;;;;4.77;4.37;;;;;;;;;;5094528;28;20188;-59
2022/10/17 11:39:43;;;;;;;4.83;4.43;;;;;;;;;;5099240;28;20442;-63
2022/10/17 11:42:13;;;;;;;4.97;4.20;;;;;;;;;;5101757;28;20446;-61
2022/10/17 11:44:41;;;;;;;5.10;4.57;;;;;;;;;;5103799;28;20442;-61
2022/10/17 11:47:14;;;;;;;5.03;4.37;;;;;;;;;;5099587;28;20443;-59
2022/10/17 11:49:42;;;;;;;5.27;4.80;;;;;;;;;;5098068;28;20450;-58
2022/10/17 11:52:14;;;;;;;4.83;4.43;;;;;;;;;;5096197;28;20500;-58
2022/10/17 11:54:43;;;;;;;4.43;4.03;;;;;;;;;;5095099;28;20451;-63
2022/10/17 11:57:36;;;;;;;4.37;4.07;;;;;;;;;;5100113;28;20434;-63
2022/10/17 12:00:19;;;;;;;4.37;4.07;;;;;;;;;;5096722;28;20839;-62
2022/10/17 12:02:51;;;;;;;4.97;4.53;;;;;;;;;;5105438;28;20520;-60
2022/10/17 12:05:22;;;;;;;6.38;5.22;;;;;;;;;;5106367;28;20794;-62
2022/10/17 12:07:51;;;;;;;5.97;5.47;;;;;;;;;;5107796;28;20190;-58
2022/10/17 12:10:22;;;;;;;5.50;5.00;;;;;;;;;;5116446;28;20482;-59
2022/10/17 12:12:49;;;;;;;6.77;4.70;;;;;;;;;;5116423;28;20481;-58
2022/10/17 12:15:29;;;;;;;5.53;5.03;;;;;;;;;;5116286;28;20473;-59
2022/10/17 12:17:59;;;;;;;5.78;5.28;;;;;;;;;;5100927;28;20534;-58
2022/10/17 12:20:31;;;;;;;5.87;5.40;;;;;;;;;;5092990;28;20189;-58
2022/10/17 12:23:05;;;;;;;6.00;5.30;;;;;;;;;;5095436;28;20447;-58
2022/10/17 12:25:33;;;;;;;7.60;5.53;;;;;;;;;;5096003;28;20460;-58
2022/10/17 12:28:09;;;;;;;5.03;4.73;;;;;;;;;;5095151;28;20447;-56
2022/10/17 12:30:36;;;;;;;6.37;5.77;;;;;;;;;;5095642;28;20533;-59
2022/10/17 12:33:06;;;;;;;5.23;4.73;;;;;;;;;;5095593;28;20446;-56
2022/10/17 12:35:34;;;;;;;5.60;5.10;;;;;;;;;;5094692;28;20443;-57
2022/10/17 12:38:15;;;;;;;5.50;5.10;;;;;;;;;;5095615;28;20542;-57
2022/10/17 12:40:53;;;;;;;5.97;5.57;;;;;;;;;;5095682;28;20465;-57
2022/10/17 12:43:38;;;;;;;6.90;5.43;;;;;;;;;;5095464;28;20446;-57
2022/10/17 12:46:05;;;;;;;6.17;5.60;;;;;;;;;;5095617;28;20460;-55
2022/10/17 12:48:51;;;;;;;5.43;5.00;;;;;;;;;;5095148;28;20512;-56
2022/10/17 12:51:21;;;;;;;5.47;4.97;;;;;;;;;;5095387;28;20303;-57
2022/10/17 12:53:52;;;;;;;5.03;4.73;;;;;;;;;;5095272;28;20443;-57
2022/10/17 12:56:19;;;;;;;6.03;5.63;;;;;;;;;;5095505;28;20449;-57
2022/10/17 12:58:47;;;;;;;5.23;4.50;;;;;;;;;;5095393;28;20453;-56
2022/10/17 13:01:17;;;;;;;4.73;4.40;;;;;;;;;;5095358;28;20450;-57
2022/10/17 13:03:45;;;;;;;5.90;5.30;;;;;;;;;;5095206;28;20538;-57
2022/10/17 13:06:16;;;;;;;5.40;4.90;;;;;;;;;;5095166;28;20456;-56
2022/10/17 13:08:46;;;;;;;8.13;4.97;;;;;;;;;;5095038;28;20525;-57
2022/10/17 13:11:14;;;;;;;5.30;4.90;;;;;;;;;;5095022;28;20496;-57
2022/10/17 13:13:43;;;;;;;4.97;4.60;;;;;;;;;;5095153;28;20685;-56
2022/10/17 13:16:27;;;;;;;5.17;4.67;;;;;;;;;;5095049;28;20478;-56
2022/10/17 13:18:54;;;;;;;8.00;5.60;;;;;;;;;;5094821;28;20976;-56
2022/10/17 13:21:21;;;;;;;5.50;5.00;;;;;;;;;;5094998;28;20449;-57
2022/10/17 13:23:51;;;;;;;6.37;5.17;;;;;;;;;;5094899;28;20449;-56
2022/10/17 13:26:20;;;;;;;5.10;4.70;;;;;;;;;;5094466;28;20447;-56
2022/10/17 13:28:47;;;;;;;5.57;5.07;;;;;;;;;;5095192;28;20520;-55
2022/10/17 13:31:38;;;;;;;5.23;4.83;;;;;;;;;;5094487;28;20484;-57
2022/10/17 13:34:06;;;;;;;6.18;5.32;;;;;;;;;;5074270;28;20457;-57
2022/10/17 13:36:34;;;;;;;5.23;4.80;;;;;;;;;;5094533;28;20446;-57
2022/10/17 13:39:07;;;;;;;5.20;4.80;;;;;;;;;;5094707;28;20840;-57
2022/10/17 13:41:34;;;;;;;9.50;4.63;;;;;;;;;;5094458;28;20814;-57
2022/10/17 13:44:02;;;;;;;4.95;4.57;;;;;;;;;;5094207;28;20960;-56
2022/10/17 13:46:30;;;;;;;5.70;5.13;;;;;;;;;;5094277;28;20224;-58
2022/10/17 13:48:57;;;;;;;4.90;4.60;;;;;;;;;;5093987;28;20502;-56
2022/10/17 13:51:25;;;;;;;8.40;5.05;;;;;;;;;;5094224;28;20470;-57
2022/10/17 13:53:52;;;;;;;7.10;4.50;;;;;;;;;;5094288;28;20536;-57
2022/10/17 13:56:23;;;;;;;5.60;5.10;;;;;;;;;;5094188;28;20453;-57
2022/10/17 13:58:51;;;;;;;4.60;4.30;;;;;;;;;;5094307;28;20454;-57
2022/10/17 14:01:19;;;;;;;8.50;5.50;;;;;;;;;;5094062;28;20542;-56
2022/10/17 14:03:46;;;;;;;4.90;4.50;;;;;;;;;;5094109;28;20593;-57
2022/10/17 14:06:20;;;;;;;5.60;5.10;;;;;;;;;;5093936;28;20453;-56
2022/10/17 14:08:49;;;;;;;5.70;5.30;;;;;;;;;;5093747;28;20477;-57
2022/10/17 14:11:18;;;;;;;9.27;5.80;;;;;;;;;;5093976;28;20439;-57
2022/10/17 14:13:50;;;;;;;6.53;5.35;;;;;;;;;;5093982;28;20452;-57
2022/10/17 14:16:17;;;;;;;7.93;5.33;;;;;;;;;;5093943;28;20189;-56
2022/10/17 14:18:48;;;;;;;10.67;5.70;;;;;;;;;;5093792;28;20460;-57
2022/10/17 14:21:19;;;;;;;6.20;5.63;;;;;;;;;;5093663;28;20474;-58
2022/10/17 14:23:46;;;;;;;5.30;4.80;;;;;;;;;;5093718;28;21234;-57
2022/10/17 14:26:14;;;;;;;6.10;5.60;;;;;;;;;;5093683;28;20450;-57
2022/10/17 14:28:42;;;;;;;11.70;5.75;;;;;;;;;;5093667;28;20802;-57
2022/10/17 14:31:13;;;;;;;6.13;5.63;;;;;;;;;;5093554;28;20207;-57
2022/10/17 14:33:44;;;;;;;6.43;5.83;;;;;;;;;;5093477;28;20459;-57
2022/10/17 14:36:11;;;;;;;7.28;5.90;;;;;;;;;;5093287;28;20453;-57
2022/10/17 14:38:38;;;;;;;6.73;6.00;;;;;;;;;;5093451;28;20189;-58
2022/10/17 14:41:07;;;;;;;6.27;5.77;;;;;;;;;;5093249;28;20492;-57
2022/10/17 14:43:34;;;;;;;6.90;6.10;;;;;;;;;;5093482;28;20466;-57
2022/10/17 14:46:01;;;;;;;9.10;6.63;;;;;;;;;;5093124;28;20188;-56
2022/10/17 14:48:31;;;;;;;6.77;6.27;;;;;;;;;;5092933;28;20473;-57
2022/10/17 14:51:11;;;;;;;5.27;4.83;;;;;;;;;;5093256;28;20451;-56
2022/10/17 14:53:38;;;;;;;6.20;5.70;;;;;;;;;;5093086;28;20478;-56